createdAt,value
2018-05-02T00:00:06.824Z,6.40
2018-05-02T00:00:38.256Z,6.40
2018-05-02T00:01:09.647Z,6.40
2018-05-02T00:01:41.058Z,6.40
2018-05-02T00:02:12.467Z,6.40
2018-05-02T00:02:44.595Z,6.40
2018-05-02T00:03:15.990Z,6.40
2018-05-02T00:03:47.378Z,6.40
2018-05-02T00:04:19.556Z,6.30
2018-05-02T00:04:51.703Z,6.30
2018-05-02T00:05:23.091Z,6.30
2018-05-02T00:05:54.493Z,6.30
2018-05-02T00:06:25.878Z,6.30
2018-05-02T00:06:57.311Z,6.30
2018-05-02T00:07:28.707Z,6.20
2018-05-02T00:08:00.107Z,6.20
2018-05-02T00:08:31.495Z,6.10
2018-05-02T00:09:04.471Z,6.10
2018-05-02T00:09:36.636Z,6.10
2018-05-02T00:10:08.055Z,6.00
2018-05-02T00:10:39.475Z,6.10
2018-05-02T00:11:10.918Z,6.00
2018-05-02T00:11:42.323Z,6.00
2018-05-02T00:12:14.480Z,6.00
2018-05-02T00:12:45.874Z,5.90
2018-05-02T00:13:17.348Z,6.00
2018-05-02T00:13:48.719Z,5.90
2018-05-02T00:14:20.112Z,5.90
2018-05-02T00:14:51.511Z,5.90
2018-05-02T00:15:22.905Z,5.90
2018-05-02T00:15:54.292Z,5.90
2018-05-02T00:16:25.674Z,5.90
2018-05-02T00:16:57.060Z,5.90
2018-05-02T00:17:28.471Z,5.90
2018-05-02T00:17:59.908Z,5.90
2018-05-02T00:18:31.267Z,5.90
2018-05-02T00:19:03.443Z,5.80
2018-05-02T00:19:34.858Z,5.80
2018-05-02T00:20:06.243Z,5.80
2018-05-02T00:20:37.626Z,5.80
2018-05-02T00:21:09.018Z,5.80
2018-05-02T00:21:40.404Z,5.80
2018-05-02T00:22:12.799Z,5.80
2018-05-02T00:22:44.215Z,5.80
2018-05-02T00:23:15.603Z,5.90
2018-05-02T00:23:46.984Z,5.90
2018-05-02T00:24:18.387Z,5.80
2018-05-02T00:24:49.808Z,5.90
2018-05-02T00:25:21.223Z,5.90
2018-05-02T00:25:52.599Z,5.90
2018-05-02T00:26:24.735Z,5.90
2018-05-02T00:26:56.115Z,5.80
2018-05-02T00:27:27.491Z,5.90
2018-05-02T00:27:58.931Z,5.90
2018-05-02T00:28:30.321Z,5.90
2018-05-02T00:29:01.715Z,5.90
2018-05-02T00:29:33.099Z,5.90
2018-05-02T00:30:05.238Z,5.90
2018-05-02T00:30:36.627Z,5.80
2018-05-02T00:31:08.047Z,5.80
2018-05-02T00:31:39.451Z,5.80
2018-05-02T00:32:10.856Z,5.80
2018-05-02T00:32:42.244Z,5.80
2018-05-02T00:33:13.659Z,5.70
2018-05-02T00:33:45.071Z,5.70
2018-05-02T00:34:16.446Z,5.70
2018-05-02T00:34:47.831Z,5.70
2018-05-02T00:35:19.959Z,5.70
2018-05-02T00:35:52.115Z,5.60
2018-05-02T00:36:23.494Z,5.70
2018-05-02T00:36:55.622Z,5.60
2018-05-02T00:37:27.004Z,5.60
2018-05-02T00:37:58.419Z,5.60
2018-05-02T00:38:30.575Z,5.60
2018-05-02T00:39:02.006Z,5.60
2018-05-02T00:39:33.419Z,5.60
2018-05-02T00:40:04.832Z,5.60
2018-05-02T00:40:36.227Z,5.60
2018-05-02T00:41:07.612Z,5.50
2018-05-02T00:41:38.998Z,5.50
2018-05-02T00:42:11.895Z,5.40
2018-05-02T00:42:43.283Z,5.40
2018-05-02T00:43:14.698Z,5.40
2018-05-02T00:43:46.115Z,5.50
2018-05-02T00:44:17.520Z,5.50
2018-05-02T00:44:48.926Z,5.50
2018-05-02T00:45:20.308Z,5.50
2018-05-02T00:45:51.711Z,5.50
2018-05-02T00:46:23.852Z,5.50
2018-05-02T00:46:55.975Z,5.50
2018-05-02T00:47:27.361Z,5.40
2018-05-02T00:47:58.756Z,5.40
2018-05-02T00:48:30.139Z,5.40
2018-05-02T00:49:17.463Z,5.40
2018-05-02T00:49:48.856Z,5.40
2018-05-02T00:50:20.239Z,5.40
2018-05-02T00:50:51.641Z,5.40
2018-05-02T00:51:23.027Z,5.40
2018-05-02T00:51:54.407Z,5.40
2018-05-02T00:52:25.789Z,5.30
2018-05-02T00:52:57.923Z,5.30
2018-05-02T00:53:29.298Z,5.30
2018-05-02T00:54:01.439Z,5.30
2018-05-02T00:54:32.878Z,5.30
2018-05-02T00:55:04.272Z,5.30
2018-05-02T00:55:35.667Z,5.20
2018-05-02T00:56:07.048Z,5.20
2018-05-02T00:56:38.439Z,5.20
2018-05-02T00:57:09.875Z,5.10
2018-05-02T00:57:41.235Z,5.10
2018-05-02T00:58:13.415Z,5.10
2018-05-02T00:58:45.575Z,5.10
2018-05-02T00:59:16.960Z,5.10
2018-05-02T00:59:48.392Z,5.10
2018-05-02T01:00:19.798Z,5.00
2018-05-02T01:00:51.235Z,5.10
2018-05-02T01:01:22.675Z,5.00
2018-05-02T01:01:54.084Z,5.00
2018-05-02T01:02:26.959Z,5.00
2018-05-02T01:02:58.351Z,5.00
2018-05-02T01:03:29.755Z,5.00
2018-05-02T01:04:01.175Z,5.00
2018-05-02T01:04:32.554Z,5.00
2018-05-02T01:05:04.734Z,5.00
2018-05-02T01:05:36.114Z,5.00
2018-05-02T01:06:07.506Z,5.00
2018-05-02T01:06:38.910Z,4.90
2018-05-02T01:07:10.294Z,5.00
2018-05-02T01:07:41.676Z,5.00
2018-05-02T01:08:13.867Z,4.90
2018-05-02T01:08:45.995Z,5.00
2018-05-02T01:09:17.376Z,4.90
2018-05-02T01:09:48.775Z,5.00
2018-05-02T01:10:20.270Z,5.00
2018-05-02T01:10:51.659Z,5.00
2018-05-02T01:11:23.070Z,5.00
2018-05-02T01:11:54.455Z,5.00
2018-05-02T01:12:25.854Z,5.00
2018-05-02T01:12:57.251Z,5.00
2018-05-02T01:13:28.667Z,5.00
2018-05-02T01:14:00.088Z,5.00
2018-05-02T01:14:31.479Z,5.00
2018-05-02T01:15:02.927Z,5.00
2018-05-02T01:15:34.385Z,5.00
2018-05-02T01:16:05.831Z,5.00
2018-05-02T01:16:37.247Z,5.00
2018-05-02T01:17:08.627Z,5.00
2018-05-02T01:17:40.015Z,5.00
2018-05-02T01:18:11.407Z,5.00
2018-05-02T01:18:42.782Z,5.10
2018-05-02T01:19:14.384Z,5.10
2018-05-02T01:19:45.783Z,5.10
2018-05-02T01:20:17.938Z,5.10
2018-05-02T01:20:49.375Z,5.10
2018-05-02T01:21:20.762Z,5.10
2018-05-02T01:21:52.150Z,5.10
2018-05-02T01:22:23.531Z,5.10
2018-05-02T01:22:55.655Z,5.10
2018-05-02T01:23:28.523Z,5.10
2018-05-02T01:23:59.908Z,5.10
2018-05-02T01:24:32.019Z,5.10
2018-05-02T01:25:03.435Z,5.10
2018-05-02T01:25:34.868Z,5.10
2018-05-02T01:26:06.298Z,5.10
2018-05-02T01:26:37.711Z,5.10
2018-05-02T01:27:09.091Z,5.10
2018-05-02T01:27:40.472Z,5.10
2018-05-02T01:28:11.866Z,5.10
2018-05-02T01:28:43.991Z,5.10
2018-05-02T01:29:16.859Z,5.00
2018-05-02T01:29:48.235Z,5.10
2018-05-02T01:30:20.351Z,5.10
2018-05-02T01:30:51.736Z,5.10
2018-05-02T01:31:23.880Z,5.10
2018-05-02T01:31:55.263Z,5.10
2018-05-02T01:32:26.640Z,5.10
2018-05-02T01:32:58.019Z,5.10
2018-05-02T01:33:29.411Z,5.10
2018-05-02T01:34:00.803Z,5.10
2018-05-02T01:34:32.203Z,5.10
2018-05-02T01:35:04.403Z,5.10
2018-05-02T01:35:36.523Z,5.10
2018-05-02T01:36:07.903Z,5.00
2018-05-02T01:36:40.050Z,5.10
2018-05-02T01:37:12.175Z,5.10
2018-05-02T01:37:43.558Z,5.00
2018-05-02T01:38:15.683Z,5.00
2018-05-02T01:38:47.072Z,5.00
2018-05-02T01:39:18.455Z,5.10
2018-05-02T01:39:49.859Z,5.00
2018-05-02T01:40:21.258Z,5.00
2018-05-02T01:40:53.399Z,5.00
2018-05-02T01:41:24.806Z,5.00
2018-05-02T01:41:56.216Z,5.00
2018-05-02T01:42:28.348Z,5.00
2018-05-02T01:42:59.727Z,5.00
2018-05-02T01:43:31.110Z,5.00
2018-05-02T01:44:02.518Z,5.00
2018-05-02T01:44:33.899Z,5.00
2018-05-02T01:45:05.279Z,4.90
2018-05-02T01:45:37.428Z,4.90
2018-05-02T01:46:08.842Z,4.90
2018-05-02T01:46:40.251Z,4.90
2018-05-02T01:47:11.695Z,4.90
2018-05-02T01:47:43.087Z,4.90
2018-05-02T01:48:15.227Z,4.90
2018-05-02T01:48:59.070Z,4.90
2018-05-02T01:49:30.407Z,4.90
2018-05-02T01:50:01.787Z,4.90
2018-05-02T01:50:33.202Z,4.90
2018-05-02T01:51:04.615Z,4.90
2018-05-02T01:51:36.008Z,4.90
2018-05-02T01:52:07.404Z,4.90
2018-05-02T01:52:38.814Z,4.90
2018-05-02T01:53:10.207Z,4.90
2018-05-02T01:53:42.334Z,4.80
2018-05-02T01:54:13.735Z,4.90
2018-05-02T01:54:45.123Z,4.90
2018-05-02T01:55:16.515Z,4.90
2018-05-02T01:55:47.896Z,4.80
2018-05-02T01:56:19.275Z,4.80
2018-05-02T01:56:50.676Z,4.90
2018-05-02T01:57:23.555Z,4.80
2018-05-02T01:57:54.971Z,4.80
2018-05-02T01:58:26.347Z,4.80
2018-05-02T01:58:58.474Z,4.80
2018-05-02T01:59:29.850Z,4.80
2018-05-02T02:00:01.244Z,4.80
2018-05-02T02:00:32.652Z,4.80
2018-05-02T02:01:04.799Z,4.80
2018-05-02T02:01:36.187Z,4.80
2018-05-02T02:02:07.640Z,4.80
2018-05-02T02:02:39.073Z,4.80
2018-05-02T02:03:10.487Z,4.70
2018-05-02T02:03:42.608Z,4.70
2018-05-02T02:04:13.989Z,4.70
2018-05-02T02:04:45.426Z,4.70
2018-05-02T02:05:16.842Z,4.70
2018-05-02T02:05:48.223Z,4.70
2018-05-02T02:06:19.619Z,4.70
2018-05-02T02:06:51.019Z,4.70
2018-05-02T02:07:22.403Z,4.70
2018-05-02T02:07:53.783Z,4.70
2018-05-02T02:08:25.217Z,4.70
2018-05-02T02:08:57.359Z,4.70
2018-05-02T02:09:29.485Z,4.70
2018-05-02T02:10:00.871Z,4.60
2018-05-02T02:10:33.035Z,4.60
2018-05-02T02:11:05.168Z,4.60
2018-05-02T02:11:36.551Z,4.60
2018-05-02T02:12:07.930Z,4.60
2018-05-02T02:12:39.335Z,4.60
2018-05-02T02:13:10.715Z,4.60
2018-05-02T02:13:42.118Z,4.60
2018-05-02T02:14:13.522Z,4.60
2018-05-02T02:14:44.942Z,4.60
2018-05-02T02:15:16.324Z,4.50
2018-05-02T02:15:47.735Z,4.50
2018-05-02T02:16:19.132Z,4.50
2018-05-02T02:16:50.511Z,4.40
2018-05-02T02:17:21.908Z,4.40
2018-05-02T02:17:53.302Z,4.40
2018-05-02T02:18:24.682Z,4.30
2018-05-02T02:18:56.094Z,4.30
2018-05-02T02:19:27.483Z,4.20
2018-05-02T02:19:58.875Z,4.20
2018-05-02T02:20:31.013Z,4.20
2018-05-02T02:21:02.400Z,4.10
2018-05-02T02:21:34.530Z,4.10
2018-05-02T02:22:05.915Z,4.10
2018-05-02T02:22:37.297Z,4.10
2018-05-02T02:23:08.675Z,4.10
2018-05-02T02:23:40.060Z,4.00
2018-05-02T02:24:11.483Z,4.00
2018-05-02T02:24:42.879Z,4.00
2018-05-02T02:25:14.262Z,4.00
2018-05-02T02:25:45.671Z,4.00
2018-05-02T02:26:17.079Z,4.00
2018-05-02T02:26:48.454Z,4.00
2018-05-02T02:27:20.576Z,3.90
2018-05-02T02:27:51.955Z,3.90
2018-05-02T02:28:24.111Z,3.90
2018-05-02T02:28:56.250Z,3.90
2018-05-02T02:29:27.666Z,3.90
2018-05-02T02:29:59.051Z,3.90
2018-05-02T02:30:31.179Z,3.90
2018-05-02T02:31:02.601Z,3.90
2018-05-02T02:31:34.008Z,3.90
2018-05-02T02:32:06.136Z,3.90
2018-05-02T02:32:37.520Z,3.80
2018-05-02T02:33:08.900Z,3.90
2018-05-02T02:33:40.286Z,3.90
2018-05-02T02:34:12.405Z,3.90
2018-05-02T02:34:43.823Z,3.90
2018-05-02T02:35:15.207Z,3.90
2018-05-02T02:35:46.588Z,3.90
2018-05-02T02:36:17.968Z,3.80
2018-05-02T02:36:49.359Z,3.80
2018-05-02T02:37:20.743Z,3.90
2018-05-02T02:37:52.159Z,3.80
2018-05-02T02:38:23.555Z,3.80
2018-05-02T02:38:54.947Z,3.80
2018-05-02T02:39:26.330Z,3.80
2018-05-02T02:39:57.783Z,3.80
2018-05-02T02:40:29.907Z,3.80
2018-05-02T02:41:01.303Z,3.70
2018-05-02T02:41:32.694Z,3.80
2018-05-02T02:42:04.088Z,3.80
2018-05-02T02:42:35.516Z,3.80
2018-05-02T02:43:07.643Z,3.80
2018-05-02T02:43:39.024Z,3.70
2018-05-02T02:44:10.411Z,3.80
2018-05-02T02:44:41.803Z,3.80
2018-05-02T02:45:13.957Z,3.80
2018-05-02T02:45:46.075Z,3.80
2018-05-02T02:46:17.463Z,3.80
2018-05-02T02:46:49.588Z,3.80
2018-05-02T02:47:20.983Z,3.80
2018-05-02T02:47:52.371Z,3.80
2018-05-02T02:48:24.515Z,3.80
2018-05-02T02:48:55.900Z,3.80
2018-05-02T02:49:28.023Z,3.80
2018-05-02T02:49:59.400Z,3.80
2018-05-02T02:50:31.547Z,3.80
2018-05-02T02:51:03.667Z,3.80
2018-05-02T02:51:35.047Z,3.80
2018-05-02T02:52:07.184Z,3.80
2018-05-02T02:52:38.594Z,3.80
2018-05-02T02:53:09.971Z,3.80
2018-05-02T02:53:41.360Z,3.80
2018-05-02T02:54:12.746Z,3.80
2018-05-02T02:54:44.171Z,3.80
2018-05-02T02:55:15.615Z,3.80
2018-05-02T02:55:48.527Z,3.80
2018-05-02T02:56:20.647Z,3.80
2018-05-02T02:56:52.056Z,3.80
2018-05-02T02:57:23.439Z,3.80
2018-05-02T02:57:54.823Z,3.80
2018-05-02T02:58:26.947Z,3.80
2018-05-02T02:58:58.335Z,3.80
2018-05-02T02:59:29.715Z,3.80
2018-05-02T03:00:01.099Z,3.80
2018-05-02T03:00:33.224Z,3.80
2018-05-02T03:01:04.664Z,3.70
2018-05-02T03:01:36.059Z,3.80
2018-05-02T03:02:07.444Z,3.80
2018-05-02T03:02:38.842Z,3.70
2018-05-02T03:03:10.235Z,3.70
2018-05-02T03:03:41.618Z,3.80
2018-05-02T03:04:12.999Z,3.70
2018-05-02T03:04:44.464Z,3.70
2018-05-02T03:05:15.787Z,3.70
2018-05-02T03:05:47.167Z,3.80
2018-05-02T03:06:18.608Z,3.70
2018-05-02T03:06:50.739Z,3.70
2018-05-02T03:07:22.143Z,3.70
2018-05-02T03:07:53.528Z,3.70
2018-05-02T03:08:24.916Z,3.70
2018-05-02T03:08:56.300Z,3.70
2018-05-02T03:09:27.689Z,3.70
2018-05-02T03:09:59.080Z,3.70
2018-05-02T03:10:31.947Z,3.70
2018-05-02T03:11:03.353Z,3.70
2018-05-02T03:11:34.771Z,3.70
2018-05-02T03:12:06.923Z,3.70
2018-05-02T03:12:39.058Z,3.70
2018-05-02T03:13:11.935Z,3.60
2018-05-02T03:13:43.320Z,3.70
2018-05-02T03:14:14.713Z,3.70
2018-05-02T03:14:46.889Z,3.60
2018-05-02T03:15:19.028Z,3.60
2018-05-02T03:15:50.410Z,3.60
2018-05-02T03:16:22.590Z,3.60
2018-05-02T03:16:54.115Z,3.60
2018-05-02T03:17:25.483Z,3.60
2018-05-02T03:17:56.879Z,3.60
2018-05-02T03:18:28.999Z,3.60
2018-05-02T03:19:00.404Z,3.60
2018-05-02T03:19:31.795Z,3.60
2018-05-02T03:20:03.188Z,3.60
2018-05-02T03:20:34.571Z,3.60
2018-05-02T03:21:05.955Z,3.60
2018-05-02T03:21:38.090Z,3.60
2018-05-02T03:22:09.508Z,3.60
2018-05-02T03:22:40.914Z,3.60
2018-05-02T03:23:12.316Z,3.60
2018-05-02T03:23:45.179Z,3.60
2018-05-02T03:24:16.570Z,3.60
2018-05-02T03:24:47.968Z,3.60
2018-05-02T03:25:20.100Z,3.60
2018-05-02T03:25:51.527Z,3.60
2018-05-02T03:26:22.926Z,3.60
2018-05-02T03:26:54.331Z,3.60
2018-05-02T03:27:25.749Z,3.60
2018-05-02T03:27:57.133Z,3.70
2018-05-02T03:28:28.515Z,3.60
2018-05-02T03:28:59.899Z,3.60
2018-05-02T03:29:31.287Z,3.70
2018-05-02T03:30:02.739Z,3.70
2018-05-02T03:30:34.132Z,3.70
2018-05-02T03:31:05.522Z,3.70
2018-05-02T03:31:36.911Z,3.70
2018-05-02T03:32:08.296Z,3.70
2018-05-02T03:32:39.714Z,3.70
2018-05-02T03:33:11.859Z,3.70
2018-05-02T03:33:43.254Z,3.70
2018-05-02T03:34:14.659Z,3.70
2018-05-02T03:34:46.784Z,3.70
2018-05-02T03:35:18.175Z,3.70
2018-05-02T03:35:49.562Z,3.70
2018-05-02T03:36:20.956Z,3.70
2018-05-02T03:36:52.354Z,3.80
2018-05-02T03:37:23.734Z,3.70
2018-05-02T03:37:55.179Z,3.70
2018-05-02T03:38:26.603Z,3.70
2018-05-02T03:38:58.008Z,3.70
2018-05-02T03:39:29.420Z,3.70
2018-05-02T03:40:00.835Z,3.70
2018-05-02T03:40:32.959Z,3.70
2018-05-02T03:41:04.344Z,3.70
2018-05-02T03:41:35.733Z,3.70
2018-05-02T03:42:07.140Z,3.70
2018-05-02T03:42:38.523Z,3.70
2018-05-02T03:43:09.939Z,3.70
2018-05-02T03:43:41.316Z,3.70
2018-05-02T03:44:12.707Z,3.70
2018-05-02T03:44:44.095Z,3.70
2018-05-02T03:45:15.490Z,3.70
2018-05-02T03:45:46.884Z,3.70
2018-05-02T03:46:19.027Z,3.70
2018-05-02T03:46:50.420Z,3.70
2018-05-02T03:47:21.799Z,3.70
2018-05-02T03:47:53.195Z,3.70
2018-05-02T03:48:25.343Z,3.70
2018-05-02T03:48:57.467Z,3.70
2018-05-02T03:49:28.851Z,3.70
2018-05-02T03:50:01.035Z,3.70
2018-05-02T03:50:32.434Z,3.70
2018-05-02T03:51:04.563Z,3.80
2018-05-02T03:51:35.944Z,3.80
2018-05-02T03:52:08.075Z,3.80
2018-05-02T03:52:39.467Z,3.80
2018-05-02T03:53:10.863Z,3.80
2018-05-02T03:53:42.279Z,3.80
2018-05-02T03:54:13.664Z,3.80
2018-05-02T03:54:45.791Z,3.80
2018-05-02T03:55:17.251Z,3.80
2018-05-02T03:55:48.639Z,3.80
2018-05-02T03:56:20.019Z,3.80
2018-05-02T03:56:52.168Z,3.80
2018-05-02T03:57:23.563Z,3.80
2018-05-02T03:57:54.951Z,3.90
2018-05-02T03:58:26.335Z,3.80
2018-05-02T03:58:57.751Z,3.80
2018-05-02T03:59:42.175Z,3.80
2018-05-02T04:00:25.807Z,3.80
2018-05-02T04:01:09.435Z,3.80
2018-05-02T04:01:53.065Z,3.80
2018-05-02T04:02:36.731Z,3.80
2018-05-02T04:03:20.483Z,3.80
2018-05-02T04:04:04.174Z,3.80
2018-05-02T04:04:47.820Z,3.80
2018-05-02T04:05:31.623Z,3.80
2018-05-02T04:07:12.907Z,3.80
2018-05-02T04:07:44.303Z,3.80
2018-05-02T04:08:15.710Z,3.80
2018-05-02T04:08:47.127Z,3.80
2018-05-02T04:09:18.543Z,3.80
2018-05-02T04:09:49.932Z,3.80
2018-05-02T04:10:21.343Z,3.80
2018-05-02T04:10:52.734Z,3.80
2018-05-02T04:11:24.863Z,3.80
2018-05-02T04:11:56.293Z,3.80
2018-05-02T04:12:27.718Z,3.80
2018-05-02T04:12:59.163Z,3.80
2018-05-02T04:13:30.576Z,3.80
2018-05-02T04:14:02.771Z,3.90
2018-05-02T04:14:34.239Z,3.80
2018-05-02T04:15:05.623Z,3.80
2018-05-02T04:15:37.759Z,3.90
2018-05-02T04:16:09.138Z,3.90
2018-05-02T04:16:40.535Z,3.90
2018-05-02T04:17:12.687Z,3.90
2018-05-02T04:17:44.108Z,3.90
2018-05-02T04:18:15.495Z,3.90
2018-05-02T04:18:46.921Z,3.90
2018-05-02T04:19:18.308Z,4.00
2018-05-02T04:19:49.728Z,3.90
2018-05-02T04:20:21.854Z,4.00
2018-05-02T04:20:53.240Z,4.00
2018-05-02T04:21:24.630Z,4.00
2018-05-02T04:21:56.029Z,4.00
2018-05-02T04:22:27.427Z,4.00
2018-05-02T04:22:58.807Z,4.10
2018-05-02T04:23:30.190Z,4.10
2018-05-02T04:24:01.579Z,4.10
2018-05-02T04:24:33.020Z,4.10
2018-05-02T04:25:05.171Z,4.20
2018-05-02T04:25:37.303Z,4.20
2018-05-02T04:26:09.513Z,4.30
2018-05-02T04:26:41.619Z,4.30
2018-05-02T04:27:13.016Z,4.30
2018-05-02T04:27:44.395Z,4.40
2018-05-02T04:28:15.790Z,4.40
2018-05-02T04:28:47.212Z,4.40
2018-05-02T04:29:19.334Z,4.50
2018-05-02T04:29:50.719Z,4.50
2018-05-02T04:30:22.136Z,4.50
2018-05-02T04:30:54.267Z,4.60
2018-05-02T04:31:25.655Z,4.60
2018-05-02T04:31:57.778Z,4.70
2018-05-02T04:32:29.157Z,4.70
2018-05-02T04:33:00.549Z,4.70
2018-05-02T04:33:31.955Z,4.80
2018-05-02T04:34:03.404Z,4.80
2018-05-02T04:34:34.835Z,4.80
2018-05-02T04:35:06.219Z,4.90
2018-05-02T04:35:37.676Z,4.90
2018-05-02T04:36:09.063Z,4.90
2018-05-02T04:36:40.495Z,4.90
2018-05-02T04:37:11.891Z,5.00
2018-05-02T04:37:43.271Z,5.00
2018-05-02T04:38:14.691Z,5.10
2018-05-02T04:38:46.819Z,5.20
2018-05-02T04:39:18.207Z,5.10
2018-05-02T04:39:50.334Z,5.30
2018-05-02T04:40:21.725Z,5.30
2018-05-02T04:40:53.155Z,5.30
2018-05-02T04:41:24.555Z,5.40
2018-05-02T04:41:55.944Z,5.40
2018-05-02T04:42:27.323Z,5.50
2018-05-02T04:42:58.699Z,5.50
2018-05-02T04:43:30.843Z,5.60
2018-05-02T04:44:02.259Z,5.60
2018-05-02T04:44:33.656Z,5.60
2018-05-02T04:45:05.839Z,5.70
2018-05-02T04:45:37.359Z,5.70
2018-05-02T04:46:08.777Z,5.80
2018-05-02T04:46:40.166Z,5.80
2018-05-02T04:47:11.559Z,5.90
2018-05-02T04:47:42.939Z,5.90
2018-05-02T04:48:14.381Z,6.00
2018-05-02T04:48:46.508Z,6.10
2018-05-02T04:49:18.648Z,6.10
2018-05-02T04:49:50.035Z,6.10
2018-05-02T04:50:21.423Z,6.20
2018-05-02T04:50:52.819Z,6.20
2018-05-02T04:51:24.235Z,6.30
2018-05-02T04:51:56.374Z,6.40
2018-05-02T04:52:27.763Z,6.30
2018-05-02T04:52:59.163Z,6.40
2018-05-02T04:53:30.546Z,6.50
2018-05-02T04:54:01.950Z,6.50
2018-05-02T04:54:34.082Z,6.60
2018-05-02T04:55:05.467Z,6.50
2018-05-02T04:55:37.595Z,6.60
2018-05-02T04:56:08.987Z,6.60
2018-05-02T04:56:40.403Z,6.70
2018-05-02T04:57:11.804Z,6.70
2018-05-02T04:57:43.204Z,6.80
2018-05-02T04:58:14.595Z,6.80
2018-05-02T04:58:46.003Z,6.90
2018-05-02T04:59:17.395Z,6.90
2018-05-02T04:59:48.811Z,7.00
2018-05-02T05:00:20.203Z,7.00
2018-05-02T05:00:51.583Z,7.10
2018-05-02T05:01:22.959Z,7.10
2018-05-02T05:01:55.216Z,7.30
2018-05-02T05:02:26.604Z,7.30
2018-05-02T05:02:57.995Z,7.30
2018-05-02T05:03:30.134Z,7.40
2018-05-02T05:04:01.523Z,7.40
2018-05-02T05:04:32.916Z,7.40
2018-05-02T05:05:04.303Z,7.50
2018-05-02T05:05:36.435Z,7.60
2018-05-02T05:06:07.839Z,7.50
2018-05-02T05:06:39.258Z,7.60
2018-05-02T05:07:10.679Z,7.70
2018-05-02T05:07:42.815Z,7.80
2018-05-02T05:08:14.207Z,7.80
2018-05-02T05:08:45.623Z,7.80
2018-05-02T05:09:17.751Z,8.00
2018-05-02T05:09:49.148Z,7.90
2018-05-02T05:10:20.533Z,8.00
2018-05-02T05:10:51.923Z,8.10
2018-05-02T05:11:23.303Z,8.20
2018-05-02T05:11:54.693Z,8.30
2018-05-02T05:12:26.112Z,8.40
2018-05-02T05:12:57.496Z,8.50
2018-05-02T05:13:28.888Z,8.60
2018-05-02T05:14:00.275Z,8.70
2018-05-02T05:14:31.659Z,8.80
2018-05-02T05:15:03.046Z,8.80
2018-05-02T05:15:34.447Z,8.80
2018-05-02T05:16:05.843Z,8.90
2018-05-02T05:16:37.236Z,9.00
2018-05-02T05:17:08.639Z,9.10
2018-05-02T05:17:40.063Z,9.20
2018-05-02T05:18:11.471Z,9.30
2018-05-02T05:18:43.600Z,9.40
2018-05-02T05:19:14.979Z,9.40
2018-05-02T05:19:47.115Z,9.60
2018-05-02T05:20:18.499Z,9.60
2018-05-02T05:20:49.908Z,9.70
2018-05-02T05:21:22.036Z,9.90
2018-05-02T05:21:53.420Z,9.90
2018-05-02T05:22:25.579Z,10.20
2018-05-02T05:22:57.011Z,10.20
2018-05-02T05:23:29.138Z,10.70
2018-05-02T05:24:00.535Z,10.70
2018-05-02T05:24:31.920Z,11.00
2018-05-02T05:25:03.351Z,11.20
2018-05-02T05:25:34.739Z,11.50
2018-05-02T05:26:06.871Z,11.90
2018-05-02T05:26:39.053Z,12.20
2018-05-02T05:27:11.211Z,12.30
2018-05-02T05:27:42.595Z,12.30
2018-05-02T05:28:14.035Z,12.50
2018-05-02T05:28:45.435Z,12.70
2018-05-02T05:29:16.835Z,12.90
2018-05-02T05:29:48.223Z,13.20
2018-05-02T05:30:20.354Z,13.40
2018-05-02T05:30:51.755Z,13.40
2018-05-02T05:31:23.135Z,13.60
2018-05-02T05:31:54.539Z,13.80
2018-05-02T05:32:25.943Z,13.80
2018-05-02T05:32:58.075Z,14.10
2018-05-02T05:33:29.496Z,14.20
2018-05-02T05:34:00.884Z,14.20
2018-05-02T05:34:32.299Z,14.20
2018-05-02T05:35:05.175Z,14.20
2018-05-02T05:35:36.591Z,14.20
2018-05-02T05:36:08.219Z,14.10
2018-05-02T05:36:39.815Z,14.10
2018-05-02T05:37:12.699Z,14.00
2018-05-02T05:37:44.132Z,14.00
2018-05-02T05:38:15.530Z,14.00
2018-05-02T05:38:46.947Z,14.10
2018-05-02T05:39:19.067Z,14.60
2018-05-02T05:39:51.950Z,14.70
2018-05-02T05:40:23.340Z,14.70
2018-05-02T05:40:54.739Z,14.80
2018-05-02T05:41:26.131Z,14.80
2018-05-02T05:41:57.515Z,14.90
2018-05-02T05:42:28.911Z,15.00
2018-05-02T05:43:00.290Z,15.10
2018-05-02T05:43:31.737Z,15.10
2018-05-02T05:44:03.148Z,15.30
2018-05-02T05:44:34.535Z,15.60
2018-05-02T05:45:06.684Z,15.80
2018-05-02T05:45:38.072Z,15.80
2018-05-02T05:46:09.478Z,15.70
2018-05-02T05:46:41.622Z,15.90
2018-05-02T05:47:13.775Z,16.00
2018-05-02T05:47:45.161Z,15.90
2018-05-02T05:48:16.548Z,16.00
2018-05-02T05:48:47.939Z,16.20
2018-05-02T05:49:20.091Z,16.80
2018-05-02T05:49:51.485Z,16.80
2018-05-02T05:50:22.867Z,17.10
2018-05-02T05:50:54.287Z,17.40
2018-05-02T05:51:25.670Z,17.50
2018-05-02T05:51:57.051Z,17.70
2018-05-02T05:52:28.444Z,17.70
2018-05-02T05:52:59.843Z,17.70
2018-05-02T05:53:31.239Z,17.90
2018-05-02T05:54:02.735Z,18.00
2018-05-02T05:54:34.172Z,17.70
2018-05-02T05:55:05.519Z,17.50
2018-05-02T05:55:37.654Z,17.50
2018-05-02T05:56:09.071Z,17.50
2018-05-02T05:56:40.454Z,17.50
2018-05-02T05:57:11.843Z,17.70
2018-05-02T05:57:43.239Z,17.80
2018-05-02T05:58:14.692Z,18.20
2018-05-02T05:58:46.027Z,18.40
2018-05-02T05:59:17.426Z,18.30
2018-05-02T05:59:48.839Z,18.50
2018-05-02T06:00:20.262Z,18.60
2018-05-02T06:00:52.473Z,18.70
2018-05-02T06:01:24.559Z,18.70
2018-05-02T06:01:55.951Z,18.70
2018-05-02T06:02:27.331Z,18.50
2018-05-02T06:03:00.247Z,18.20
2018-05-02T06:03:32.377Z,18.00
2018-05-02T06:04:03.778Z,18.00
2018-05-02T06:04:35.163Z,18.10
2018-05-02T06:05:07.422Z,18.30
2018-05-02T06:05:38.811Z,18.30
2018-05-02T06:06:10.211Z,18.00
2018-05-02T06:06:41.635Z,17.80
2018-05-02T06:07:13.024Z,17.70
2018-05-02T06:07:44.451Z,17.60
2018-05-02T06:08:16.591Z,16.90
2018-05-02T06:08:48.742Z,16.70
2018-05-02T06:09:20.139Z,16.70
2018-05-02T06:09:51.535Z,16.70
2018-05-02T06:10:23.690Z,16.70
2018-05-02T06:10:55.078Z,16.70
2018-05-02T06:11:26.463Z,16.60
2018-05-02T06:11:57.856Z,16.60
2018-05-02T06:12:29.243Z,16.50
2018-05-02T06:13:00.630Z,16.50
2018-05-02T06:13:32.008Z,16.60
2018-05-02T06:14:03.423Z,16.30
2018-05-02T06:14:34.855Z,16.00
2018-05-02T06:15:06.250Z,15.80
2018-05-02T06:15:37.709Z,15.70
2018-05-02T06:16:09.847Z,15.50
2018-05-02T06:16:42.715Z,15.20
2018-05-02T06:17:14.100Z,15.20
2018-05-02T06:17:46.223Z,15.00
2018-05-02T06:18:17.612Z,15.00
2018-05-02T06:18:49.090Z,14.90
2018-05-02T06:19:21.171Z,14.60
2018-05-02T06:19:53.327Z,14.40
2018-05-02T06:20:24.722Z,14.40
2018-05-02T06:20:56.131Z,14.40
2018-05-02T06:21:28.261Z,14.30
2018-05-02T06:22:00.416Z,14.20
2018-05-02T06:22:31.815Z,14.20
2018-05-02T06:23:03.204Z,14.30
2018-05-02T06:23:34.591Z,14.30
2018-05-02T06:24:06.011Z,14.20
2018-05-02T06:24:37.427Z,14.00
2018-05-02T06:25:10.338Z,13.70
2018-05-02T06:25:41.771Z,13.70
2018-05-02T06:26:13.995Z,13.60
2018-05-02T06:26:45.382Z,13.60
2018-05-02T06:27:17.531Z,13.60
2018-05-02T06:27:49.672Z,13.50
2018-05-02T06:28:21.076Z,13.50
2018-05-02T06:28:52.471Z,13.50
2018-05-02T06:29:24.603Z,13.50
2018-05-02T06:29:56.011Z,13.40
2018-05-02T06:30:27.419Z,13.40
2018-05-02T06:30:59.545Z,13.30
2018-05-02T06:31:31.392Z,13.30
2018-05-02T06:32:02.788Z,13.30
2018-05-02T06:32:34.179Z,13.30
2018-05-02T06:33:05.587Z,13.20
2018-05-02T06:33:36.975Z,13.10
2018-05-02T06:34:09.119Z,13.10
2018-05-02T06:34:40.515Z,13.10
2018-05-02T06:35:11.900Z,13.10
2018-05-02T06:35:43.307Z,13.10
2018-05-02T06:36:14.696Z,13.20
2018-05-02T06:36:46.899Z,13.10
2018-05-02T06:37:18.294Z,13.10
2018-05-02T06:37:49.712Z,13.20
2018-05-02T06:38:21.098Z,13.20
2018-05-02T06:38:53.261Z,13.30
2018-05-02T06:39:25.413Z,13.30
2018-05-02T06:39:57.544Z,13.30
2018-05-02T06:40:28.939Z,13.30
2018-05-02T06:41:00.328Z,13.40
2018-05-02T06:41:31.801Z,13.30
2018-05-02T06:42:03.220Z,13.20
2018-05-02T06:42:34.612Z,13.20
2018-05-02T06:43:06.003Z,13.10
2018-05-02T06:43:37.403Z,13.10
2018-05-02T06:44:08.792Z,13.10
2018-05-02T06:44:40.939Z,13.20
2018-05-02T06:45:12.335Z,13.20
2018-05-02T06:45:43.723Z,13.20
2018-05-02T06:46:15.883Z,13.20
2018-05-02T06:46:48.760Z,13.20
2018-05-02T06:47:21.660Z,13.10
2018-05-02T06:47:53.830Z,13.20
2018-05-02T06:48:25.252Z,13.20
2018-05-02T06:48:57.375Z,13.10
2018-05-02T06:49:28.771Z,13.10
2018-05-02T06:50:00.191Z,13.10
2018-05-02T06:50:34.944Z,13.20
2018-05-02T06:51:07.268Z,13.10
2018-05-02T06:51:38.719Z,13.10
2018-05-02T06:52:10.847Z,13.00
2018-05-02T06:52:43.069Z,13.00
2018-05-02T06:53:14.483Z,13.00
2018-05-02T06:53:46.612Z,13.00
2018-05-02T06:54:18.761Z,13.00
2018-05-02T06:54:50.179Z,13.00
2018-05-02T06:55:21.563Z,13.10
2018-05-02T06:55:52.988Z,13.00
2018-05-02T06:56:24.375Z,13.00
2018-05-02T06:56:56.499Z,13.10
2018-05-02T06:57:27.888Z,13.10
2018-05-02T06:57:59.304Z,13.10
2018-05-02T06:58:30.708Z,13.20
2018-05-02T06:59:02.129Z,13.20
2018-05-02T06:59:33.523Z,13.20
2018-05-02T07:00:05.664Z,13.30
2018-05-02T07:00:37.089Z,13.30